sensor_id;sensor_type;location;lat;lon;timestamp;P1;durP1;ratioP1;P2;durP2;ratioP2
49582;SDS011;36329;48.816;44.624;2024-01-30T00:01:13;22.7;;;11.5;;
49582;SDS011;36329;48.816;44.624;2024-01-30T00:04:15;22.9;;;11.1;;
49582;SDS011;36329;48.816;44.624;2024-01-30T00:07:17;22.5;;;11;;
49582;SDS011;36329;48.816;44.624;2024-01-30T00:10:20;24.1;;;11.4;;
49582;SDS011;36329;48.816;44.624;2024-01-30T00:13:22;23.2;;;10.9;;
49582;SDS011;36329;48.816;44.624;2024-01-30T00:16:25;20.9;;;10.8;;
49582;SDS011;36329;48.816;44.624;2024-01-30T00:19:28;22.1;;;10.4;;
49582;SDS011;36329;48.816;44.624;2024-01-30T00:22:30;17.4;;;9.4;;
49582;SDS011;36329;48.816;44.624;2024-01-30T00:25:32;16.6;;;8.9;;
49582;SDS011;36329;48.816;44.624;2024-01-30T00:28:35;17.3;;;8.5;;
49582;SDS011;36329;48.816;44.624;2024-01-30T00:31:37;17;;;8.8;;
49582;SDS011;36329;48.816;44.624;2024-01-30T00:34:41;20.7;;;10;;
49582;SDS011;36329;48.816;44.624;2024-01-30T00:37:43;20.1;;;10.2;;
49582;SDS011;36329;48.816;44.624;2024-01-30T00:40:46;20.9;;;10.2;;
49582;SDS011;36329;48.816;44.624;2024-01-30T00:43:48;23.4;;;10.7;;
49582;SDS011;36329;48.816;44.624;2024-01-30T00:46:50;20.3;;;10.1;;
49582;SDS011;36329;48.816;44.624;2024-01-30T00:49:52;20.3;;;10.2;;
49582;SDS011;36329;48.816;44.624;2024-01-30T00:52:55;19.6;;;10.2;;
49582;SDS011;36329;48.816;44.624;2024-01-30T00:55:57;19.4;;;9.2;;
49582;SDS011;36329;48.816;44.624;2024-01-30T00:58:59;16.4;;;8.7;;
49582;SDS011;36329;48.816;44.624;2024-01-30T01:02:02;17.5;;;8.2;;
49582;SDS011;36329;48.816;44.624;2024-01-30T01:05:10;15.2;;;7.9;;
49582;SDS011;36329;48.816;44.624;2024-01-30T01:08:12;14.4;;;7.4;;
49582;SDS011;36329;48.816;44.624;2024-01-30T01:11:14;13.8;;;7.4;;
49582;SDS011;36329;48.816;44.624;2024-01-30T01:14:17;14.1;;;7.1;;
49582;SDS011;36329;48.816;44.624;2024-01-30T01:17:19;13.4;;;6.9;;
49582;SDS011;36329;48.816;44.624;2024-01-30T01:20:22;11.7;;;7;;
49582;SDS011;36329;48.816;44.624;2024-01-30T01:23:24;11;;;6.4;;
49582;SDS011;36329;48.816;44.624;2024-01-30T01:26:26;15;;;7.1;;
49582;SDS011;36329;48.816;44.624;2024-01-30T01:29:29;13;;;7.1;;
49582;SDS011;36329;48.816;44.624;2024-01-30T01:32:31;14.9;;;7.3;;
49582;SDS011;36329;48.816;44.624;2024-01-30T01:35:33;15.3;;;6.8;;
49582;SDS011;36329;48.816;44.624;2024-01-30T01:38:35;15.5;;;7.3;;
49582;SDS011;36329;48.816;44.624;2024-01-30T01:41:38;14.7;;;7.1;;
49582;SDS011;36329;48.816;44.624;2024-01-30T01:44:40;12.9;;;7.3;;
49582;SDS011;36329;48.816;44.624;2024-01-30T01:47:42;15;;;7.6;;
49582;SDS011;36329;48.816;44.624;2024-01-30T01:50:45;13.1;;;7.7;;
49582;SDS011;36329;48.816;44.624;2024-01-30T01:53:48;16.1;;;7.8;;
49582;SDS011;36329;48.816;44.624;2024-01-30T01:56:50;16.3;;;8.2;;
49582;SDS011;36329;48.816;44.624;2024-01-30T01:59:53;13.6;;;7.1;;
49582;SDS011;36329;48.816;44.624;2024-01-30T02:02:56;11.9;;;7.1;;
49582;SDS011;36329;48.816;44.624;2024-01-30T02:05:59;16;;;7.3;;
49582;SDS011;36329;48.816;44.624;2024-01-30T02:09:02;13.8;;;6.8;;
49582;SDS011;36329;48.816;44.624;2024-01-30T02:12:05;12.6;;;6.4;;
49582;SDS011;36329;48.816;44.624;2024-01-30T02:15:07;12.6;;;6.6;;
49582;SDS011;36329;48.816;44.624;2024-01-30T02:18:15;11.4;;;6.1;;
49582;SDS011;36329;48.816;44.624;2024-01-30T02:21:32;12.4;;;5.7;;
49582;SDS011;36329;48.816;44.624;2024-01-30T02:24:35;14.1;;;5.7;;
49582;SDS011;36329;48.816;44.624;2024-01-30T02:27:37;10.7;;;5.7;;
49582;SDS011;36329;48.816;44.624;2024-01-30T02:30:39;12.5;;;5.8;;
49582;SDS011;36329;48.816;44.624;2024-01-30T02:33:42;10.3;;;6;;
49582;SDS011;36329;48.816;44.624;2024-01-30T02:36:44;12.6;;;6.5;;
49582;SDS011;36329;48.816;44.624;2024-01-30T02:39:47;13.3;;;6.9;;
49582;SDS011;36329;48.816;44.624;2024-01-30T02:42:49;15.1;;;7.6;;
49582;SDS011;36329;48.816;44.624;2024-01-30T02:45:52;13.7;;;7.4;;
49582;SDS011;36329;48.816;44.624;2024-01-30T02:48:54;17.4;;;7.5;;
49582;SDS011;36329;48.816;44.624;2024-01-30T02:51:57;14.6;;;7.7;;
49582;SDS011;36329;48.816;44.624;2024-01-30T02:54:59;13.1;;;7.4;;
49582;SDS011;36329;48.816;44.624;2024-01-30T02:58:02;14.1;;;6.9;;
49582;SDS011;36329;48.816;44.624;2024-01-30T03:01:04;13.3;;;6.8;;
49582;SDS011;36329;48.816;44.624;2024-01-30T03:04:06;12;;;6.8;;
49582;SDS011;36329;48.816;44.624;2024-01-30T03:07:08;11.3;;;6.4;;
49582;SDS011;36329;48.816;44.624;2024-01-30T03:10:11;12.1;;;6.6;;
49582;SDS011;36329;48.816;44.624;2024-01-30T03:13:13;11.6;;;6.7;;
49582;SDS011;36329;48.816;44.624;2024-01-30T03:16:16;11.8;;;6.6;;
49582;SDS011;36329;48.816;44.624;2024-01-30T03:19:18;11.2;;;6.1;;
49582;SDS011;36329;48.816;44.624;2024-01-30T03:22:21;10.9;;;5.8;;
49582;SDS011;36329;48.816;44.624;2024-01-30T03:25:23;10.1;;;5.6;;
49582;SDS011;36329;48.816;44.624;2024-01-30T03:28:25;10.2;;;5.4;;
49582;SDS011;36329;48.816;44.624;2024-01-30T03:31:28;10.2;;;5.6;;
49582;SDS011;36329;48.816;44.624;2024-01-30T03:34:30;9.9;;;5.8;;
49582;SDS011;36329;48.816;44.624;2024-01-30T03:37:32;10.5;;;5.8;;
49582;SDS011;36329;48.816;44.624;2024-01-30T03:40:34;10.6;;;5.7;;
49582;SDS011;36329;48.816;44.624;2024-01-30T03:43:37;12;;;6.2;;
49582;SDS011;36329;48.816;44.624;2024-01-30T03:46:40;11;;;5.3;;
49582;SDS011;36329;48.816;44.624;2024-01-30T03:49:42;11;;;6;;
49582;SDS011;36329;48.816;44.624;2024-01-30T03:52:44;10.5;;;5.5;;
49582;SDS011;36329;48.816;44.624;2024-01-30T03:55:46;12.2;;;5.6;;
49582;SDS011;36329;48.816;44.624;2024-01-30T03:58:48;12.6;;;6;;
49582;SDS011;36329;48.816;44.624;2024-01-30T04:01:51;11.2;;;6.1;;
49582;SDS011;36329;48.816;44.624;2024-01-30T04:04:53;11.2;;;6;;
49582;SDS011;36329;48.816;44.624;2024-01-30T04:07:55;10.3;;;6.1;;
49582;SDS011;36329;48.816;44.624;2024-01-30T04:10:58;9.3;;;5.2;;
49582;SDS011;36329;48.816;44.624;2024-01-30T04:14:00;7.8;;;5.1;;
49582;SDS011;36329;48.816;44.624;2024-01-30T04:17:03;8.1;;;4.5;;
49582;SDS011;36329;48.816;44.624;2024-01-30T04:20:05;5.8;;;4;;
49582;SDS011;36329;48.816;44.624;2024-01-30T04:23:08;7.2;;;3.9;;
49582;SDS011;36329;48.816;44.624;2024-01-30T04:26:11;5.7;;;3.4;;
49582;SDS011;36329;48.816;44.624;2024-01-30T04:29:13;5.6;;;3.2;;
49582;SDS011;36329;48.816;44.624;2024-01-30T04:32:15;5.9;;;3.2;;
49582;SDS011;36329;48.816;44.624;2024-01-30T04:35:17;6;;;3.4;;
49582;SDS011;36329;48.816;44.624;2024-01-30T04:38:20;5;;;3;;
49582;SDS011;36329;48.816;44.624;2024-01-30T04:41:22;5.7;;;3.2;;
49582;SDS011;36329;48.816;44.624;2024-01-30T04:44:25;4.9;;;2.9;;
49582;SDS011;36329;48.816;44.624;2024-01-30T04:47:27;5;;;2.9;;
49582;SDS011;36329;48.816;44.624;2024-01-30T04:50:29;6.2;;;3.2;;
49582;SDS011;36329;48.816;44.624;2024-01-30T04:53:32;5.3;;;3.2;;
49582;SDS011;36329;48.816;44.624;2024-01-30T04:56:34;6.6;;;3.6;;
49582;SDS011;36329;48.816;44.624;2024-01-30T04:59:36;5.4;;;3.1;;
49582;SDS011;36329;48.816;44.624;2024-01-30T05:02:39;5.1;;;3.4;;
49582;SDS011;36329;48.816;44.624;2024-01-30T05:05:41;6.4;;;3.1;;
49582;SDS011;36329;48.816;44.624;2024-01-30T05:08:45;5.2;;;3;;
49582;SDS011;36329;48.816;44.624;2024-01-30T05:11:48;5.8;;;3.2;;
49582;SDS011;36329;48.816;44.624;2024-01-30T05:14:50;5.7;;;3.4;;
49582;SDS011;36329;48.816;44.624;2024-01-30T05:17:52;6.7;;;3.8;;
49582;SDS011;36329;48.816;44.624;2024-01-30T05:20:55;6.5;;;3.8;;
49582;SDS011;36329;48.816;44.624;2024-01-30T05:23:57;6.2;;;3.6;;
49582;SDS011;36329;48.816;44.624;2024-01-30T05:27:00;6.8;;;3.9;;
49582;SDS011;36329;48.816;44.624;2024-01-30T05:30:02;7.4;;;4.2;;
49582;SDS011;36329;48.816;44.624;2024-01-30T05:33:06;7.9;;;4;;
49582;SDS011;36329;48.816;44.624;2024-01-30T05:36:08;5.9;;;3.8;;
49582;SDS011;36329;48.816;44.624;2024-01-30T05:39:13;7.1;;;3.8;;
49582;SDS011;36329;48.816;44.624;2024-01-30T05:42:15;6.9;;;3.8;;
49582;SDS011;36329;48.816;44.624;2024-01-30T05:45:17;5.8;;;3.3;;
49582;SDS011;36329;48.816;44.624;2024-01-30T05:48:19;7;;;3.4;;
49582;SDS011;36329;48.816;44.624;2024-01-30T05:51:22;6.1;;;3.3;;
49582;SDS011;36329;48.816;44.624;2024-01-30T05:54:24;5.5;;;3.2;;
49582;SDS011;36329;48.816;44.624;2024-01-30T05:57:26;6.7;;;3.7;;
49582;SDS011;36329;48.816;44.624;2024-01-30T06:00:28;6.9;;;4.2;;
49582;SDS011;36329;48.816;44.624;2024-01-30T06:03:31;6.6;;;3.7;;
49582;SDS011;36329;48.816;44.624;2024-01-30T06:06:33;6.3;;;3.6;;
49582;SDS011;36329;48.816;44.624;2024-01-30T06:09:35;6.3;;;4.1;;
49582;SDS011;36329;48.816;44.624;2024-01-30T06:12:38;6.4;;;3.9;;
49582;SDS011;36329;48.816;44.624;2024-01-30T06:15:40;6.1;;;3.5;;
49582;SDS011;36329;48.816;44.624;2024-01-30T06:18:42;7.9;;;4;;
49582;SDS011;36329;48.816;44.624;2024-01-30T06:21:44;7.4;;;3.9;;
49582;SDS011;36329;48.816;44.624;2024-01-30T06:24:47;7.6;;;4.4;;
49582;SDS011;36329;48.816;44.624;2024-01-30T06:27:50;7.7;;;4.2;;
49582;SDS011;36329;48.816;44.624;2024-01-30T06:30:52;7.2;;;4.5;;
49582;SDS011;36329;48.816;44.624;2024-01-30T06:33:54;9;;;4.3;;
49582;SDS011;36329;48.816;44.624;2024-01-30T06:36:56;8.2;;;4.4;;
49582;SDS011;36329;48.816;44.624;2024-01-30T06:39:59;7.8;;;4.3;;
49582;SDS011;36329;48.816;44.624;2024-01-30T06:43:01;7.8;;;4.4;;
49582;SDS011;36329;48.816;44.624;2024-01-30T06:46:03;6.7;;;3.7;;
49582;SDS011;36329;48.816;44.624;2024-01-30T06:49:05;5.7;;;3.5;;
49582;SDS011;36329;48.816;44.624;2024-01-30T06:52:07;6;;;3.4;;
49582;SDS011;36329;48.816;44.624;2024-01-30T06:55:10;6.8;;;3.7;;
49582;SDS011;36329;48.816;44.624;2024-01-30T06:58:12;6;;;3.7;;
49582;SDS011;36329;48.816;44.624;2024-01-30T07:01:14;6.6;;;3.8;;
49582;SDS011;36329;48.816;44.624;2024-01-30T07:04:16;6.6;;;3.9;;
49582;SDS011;36329;48.816;44.624;2024-01-30T07:07:18;4.8;;;3.2;;
49582;SDS011;36329;48.816;44.624;2024-01-30T07:10:21;7.1;;;3.3;;
49582;SDS011;36329;48.816;44.624;2024-01-30T07:13:23;5;;;3.1;;
49582;SDS011;36329;48.816;44.624;2024-01-30T07:16:25;6;;;3.6;;
49582;SDS011;36329;48.816;44.624;2024-01-30T07:19:27;6.2;;;3.7;;
49582;SDS011;36329;48.816;44.624;2024-01-30T07:22:30;7;;;3.5;;
49582;SDS011;36329;48.816;44.624;2024-01-30T07:25:32;7.5;;;3.5;;
49582;SDS011;36329;48.816;44.624;2024-01-30T07:28:35;6.9;;;3.6;;
49582;SDS011;36329;48.816;44.624;2024-01-30T07:31:37;7.5;;;3.9;;
49582;SDS011;36329;48.816;44.624;2024-01-30T07:34:39;5.8;;;3.4;;
49582;SDS011;36329;48.816;44.624;2024-01-30T07:37:42;5.8;;;3.4;;
49582;SDS011;36329;48.816;44.624;2024-01-30T07:40:44;5.5;;;3.4;;
49582;SDS011;36329;48.816;44.624;2024-01-30T07:43:47;7;;;3.6;;
49582;SDS011;36329;48.816;44.624;2024-01-30T07:46:49;6.2;;;3.4;;
49582;SDS011;36329;48.816;44.624;2024-01-30T07:49:51;6.3;;;3.5;;
49582;SDS011;36329;48.816;44.624;2024-01-30T07:52:55;7;;;3.5;;
49582;SDS011;36329;48.816;44.624;2024-01-30T07:55:57;7.6;;;4;;
49582;SDS011;36329;48.816;44.624;2024-01-30T07:59:00;7.4;;;3.1;;
49582;SDS011;36329;48.816;44.624;2024-01-30T08:02:02;6.5;;;3.5;;
49582;SDS011;36329;48.816;44.624;2024-01-30T08:05:05;6.2;;;3.6;;
49582;SDS011;36329;48.816;44.624;2024-01-30T08:08:07;7.8;;;3.8;;
49582;SDS011;36329;48.816;44.624;2024-01-30T08:11:09;6.8;;;3.8;;
49582;SDS011;36329;48.816;44.624;2024-01-30T08:14:12;6.4;;;3.6;;
49582;SDS011;36329;48.816;44.624;2024-01-30T08:17:14;6.8;;;3.6;;
49582;SDS011;36329;48.816;44.624;2024-01-30T08:20:17;5.7;;;3.5;;
49582;SDS011;36329;48.816;44.624;2024-01-30T08:23:19;7.9;;;3.5;;
49582;SDS011;36329;48.816;44.624;2024-01-30T08:26:21;6.3;;;3.6;;
49582;SDS011;36329;48.816;44.624;2024-01-30T08:29:23;7.7;;;3.5;;
49582;SDS011;36329;48.816;44.624;2024-01-30T08:32:27;7.3;;;3.9;;
49582;SDS011;36329;48.816;44.624;2024-01-30T08:35:29;6;;;3.7;;
49582;SDS011;36329;48.816;44.624;2024-01-30T08:38:31;6.8;;;3.7;;
49582;SDS011;36329;48.816;44.624;2024-01-30T08:41:34;8.3;;;3.9;;
49582;SDS011;36329;48.816;44.624;2024-01-30T08:44:36;7.1;;;3.8;;
49582;SDS011;36329;48.816;44.624;2024-01-30T08:47:38;6;;;3.5;;
49582;SDS011;36329;48.816;44.624;2024-01-30T08:50:42;7.5;;;3.9;;
49582;SDS011;36329;48.816;44.624;2024-01-30T08:53:45;7.2;;;3.5;;
49582;SDS011;36329;48.816;44.624;2024-01-30T08:56:47;7.3;;;3.9;;
49582;SDS011;36329;48.816;44.624;2024-01-30T08:59:49;7.5;;;4;;
49582;SDS011;36329;48.816;44.624;2024-01-30T09:02:52;6.7;;;3.6;;
49582;SDS011;36329;48.816;44.624;2024-01-30T09:05:54;7.5;;;4.1;;
49582;SDS011;36329;48.816;44.624;2024-01-30T09:08:56;6;;;3.6;;
49582;SDS011;36329;48.816;44.624;2024-01-30T09:11:58;7;;;3.6;;
49582;SDS011;36329;48.816;44.624;2024-01-30T09:15:00;7.3;;;3.7;;
49582;SDS011;36329;48.816;44.624;2024-01-30T09:18:06;6.2;;;3.4;;
49582;SDS011;36329;48.816;44.624;2024-01-30T09:21:08;8.9;;;4.2;;
49582;SDS011;36329;48.816;44.624;2024-01-30T09:24:12;6.9;;;3.7;;
49582;SDS011;36329;48.816;44.624;2024-01-30T09:27:15;7.4;;;4.1;;
49582;SDS011;36329;48.816;44.624;2024-01-30T09:30:17;8.4;;;4.1;;
49582;SDS011;36329;48.816;44.624;2024-01-30T09:33:20;7.7;;;3.8;;
49582;SDS011;36329;48.816;44.624;2024-01-30T09:36:23;6.4;;;3.9;;
49582;SDS011;36329;48.816;44.624;2024-01-30T09:39:25;6.4;;;3.6;;
49582;SDS011;36329;48.816;44.624;2024-01-30T09:42:31;7.3;;;4.1;;
49582;SDS011;36329;48.816;44.624;2024-01-30T09:45:36;7;;;4.1;;
49582;SDS011;36329;48.816;44.624;2024-01-30T09:48:40;7;;;3.6;;
49582;SDS011;36329;48.816;44.624;2024-01-30T09:51:43;7.7;;;4.2;;
49582;SDS011;36329;48.816;44.624;2024-01-30T09:54:46;7.1;;;4;;
49582;SDS011;36329;48.816;44.624;2024-01-30T09:57:53;8.5;;;4.1;;
49582;SDS011;36329;48.816;44.624;2024-01-30T10:00:55;6.7;;;4;;
49582;SDS011;36329;48.816;44.624;2024-01-30T10:03:58;6.2;;;3.9;;
49582;SDS011;36329;48.816;44.624;2024-01-30T10:07:02;7.1;;;4;;
49582;SDS011;36329;48.816;44.624;2024-01-30T10:10:05;6.7;;;4;;
49582;SDS011;36329;48.816;44.624;2024-01-30T10:13:07;6.9;;;4.3;;
49582;SDS011;36329;48.816;44.624;2024-01-30T10:16:10;6.9;;;3.8;;
49582;SDS011;36329;48.816;44.624;2024-01-30T10:19:15;6.6;;;3.9;;
49582;SDS011;36329;48.816;44.624;2024-01-30T10:22:17;8;;;4.4;;
49582;SDS011;36329;48.816;44.624;2024-01-30T10:25:21;7.6;;;4.3;;
49582;SDS011;36329;48.816;44.624;2024-01-30T10:28:26;7;;;4.1;;
49582;SDS011;36329;48.816;44.624;2024-01-30T10:31:28;6.3;;;3.7;;
49582;SDS011;36329;48.816;44.624;2024-01-30T10:34:31;7.8;;;3.9;;
49582;SDS011;36329;48.816;44.624;2024-01-30T10:37:34;8.9;;;4.3;;
49582;SDS011;36329;48.816;44.624;2024-01-30T10:40:36;7;;;4.3;;
49582;SDS011;36329;48.816;44.624;2024-01-30T10:43:41;7.7;;;4.3;;
49582;SDS011;36329;48.816;44.624;2024-01-30T10:46:43;9.5;;;4.4;;
49582;SDS011;36329;48.816;44.624;2024-01-30T10:49:50;9.3;;;4.6;;
49582;SDS011;36329;48.816;44.624;2024-01-30T10:52:54;7.7;;;3.9;;
49582;SDS011;36329;48.816;44.624;2024-01-30T10:55:56;8.6;;;4.3;;
49582;SDS011;36329;48.816;44.624;2024-01-30T10:59:01;8.2;;;4.7;;
49582;SDS011;36329;48.816;44.624;2024-01-30T11:02:04;9;;;4.6;;
49582;SDS011;36329;48.816;44.624;2024-01-30T11:05:07;7.2;;;4.5;;
49582;SDS011;36329;48.816;44.624;2024-01-30T11:08:11;7.5;;;4.3;;
49582;SDS011;36329;48.816;44.624;2024-01-30T11:11:13;7;;;4.4;;
49582;SDS011;36329;48.816;44.624;2024-01-30T11:14:23;6.9;;;4;;
49582;SDS011;36329;48.816;44.624;2024-01-30T11:17:27;6.6;;;4;;
49582;SDS011;36329;48.816;44.624;2024-01-30T11:20:30;6.7;;;4.2;;
49582;SDS011;36329;48.816;44.624;2024-01-30T11:23:33;6.9;;;4.2;;
49582;SDS011;36329;48.816;44.624;2024-01-30T11:26:36;6.8;;;4.1;;
49582;SDS011;36329;48.816;44.624;2024-01-30T11:29:38;8.1;;;4.6;;
49582;SDS011;36329;48.816;44.624;2024-01-30T11:32:42;9;;;4.5;;
49582;SDS011;36329;48.816;44.624;2024-01-30T11:35:45;7.6;;;4.5;;
49582;SDS011;36329;48.816;44.624;2024-01-30T11:38:47;8;;;4.4;;
49582;SDS011;36329;48.816;44.624;2024-01-30T11:41:51;7.9;;;4.2;;
49582;SDS011;36329;48.816;44.624;2024-01-30T11:44:53;6.7;;;3.9;;
49582;SDS011;36329;48.816;44.624;2024-01-30T11:47:56;5.8;;;3.7;;
49582;SDS011;36329;48.816;44.624;2024-01-30T11:50:59;9.3;;;4.5;;
49582;SDS011;36329;48.816;44.624;2024-01-30T11:54:02;7.6;;;4.3;;
49582;SDS011;36329;48.816;44.624;2024-01-30T11:57:04;7.5;;;4.7;;
49582;SDS011;36329;48.816;44.624;2024-01-30T12:00:13;8.3;;;4.6;;
49582;SDS011;36329;48.816;44.624;2024-01-30T12:03:17;7.9;;;4.7;;
49582;SDS011;36329;48.816;44.624;2024-01-30T12:06:19;9.1;;;4.8;;
49582;SDS011;36329;48.816;44.624;2024-01-30T12:09:22;6.9;;;4.4;;
49582;SDS011;36329;48.816;44.624;2024-01-30T12:12:24;9.2;;;5;;
49582;SDS011;36329;48.816;44.624;2024-01-30T12:15:28;8;;;4.5;;
49582;SDS011;36329;48.816;44.624;2024-01-30T12:18:30;7.9;;;4.6;;
49582;SDS011;36329;48.816;44.624;2024-01-30T12:21:33;7.9;;;4.8;;
49582;SDS011;36329;48.816;44.624;2024-01-30T12:24:36;8.7;;;4.2;;
49582;SDS011;36329;48.816;44.624;2024-01-30T12:27:39;9.1;;;4.9;;
49582;SDS011;36329;48.816;44.624;2024-01-30T12:30:43;10.1;;;5.3;;
49582;SDS011;36329;48.816;44.624;2024-01-30T12:33:47;9.3;;;4.4;;
49582;SDS011;36329;48.816;44.624;2024-01-30T12:36:51;9.9;;;5.4;;
49582;SDS011;36329;48.816;44.624;2024-01-30T12:39:53;9.8;;;4.9;;
49582;SDS011;36329;48.816;44.624;2024-01-30T12:42:55;10.3;;;4.9;;
49582;SDS011;36329;48.816;44.624;2024-01-30T12:45:58;9.2;;;4.9;;
49582;SDS011;36329;48.816;44.624;2024-01-30T12:49:00;10.1;;;5.6;;
49582;SDS011;36329;48.816;44.624;2024-01-30T12:52:03;11.9;;;6;;
49582;SDS011;36329;48.816;44.624;2024-01-30T12:55:05;9.4;;;5.4;;
49582;SDS011;36329;48.816;44.624;2024-01-30T12:58:08;12.6;;;5.3;;
49582;SDS011;36329;48.816;44.624;2024-01-30T13:01:10;11.1;;;5.7;;
49582;SDS011;36329;48.816;44.624;2024-01-30T13:04:13;11.9;;;5.7;;
49582;SDS011;36329;48.816;44.624;2024-01-30T13:07:15;9.9;;;5.2;;
49582;SDS011;36329;48.816;44.624;2024-01-30T13:10:18;11.1;;;5.9;;
49582;SDS011;36329;48.816;44.624;2024-01-30T13:13:20;10.3;;;5.5;;
49582;SDS011;36329;48.816;44.624;2024-01-30T13:16:22;12;;;6;;
49582;SDS011;36329;48.816;44.624;2024-01-30T13:19:24;11.2;;;5.4;;
49582;SDS011;36329;48.816;44.624;2024-01-30T13:22:26;12;;;5.9;;
49582;SDS011;36329;48.816;44.624;2024-01-30T13:25:29;12.6;;;6.2;;
49582;SDS011;36329;48.816;44.624;2024-01-30T13:28:31;11.2;;;6.3;;
49582;SDS011;36329;48.816;44.624;2024-01-30T13:31:33;11.9;;;6.2;;
49582;SDS011;36329;48.816;44.624;2024-01-30T13:34:36;11.1;;;6.2;;
49582;SDS011;36329;48.816;44.624;2024-01-30T13:37:38;11.5;;;6.1;;
49582;SDS011;36329;48.816;44.624;2024-01-30T13:40:40;10.6;;;5.8;;
49582;SDS011;36329;48.816;44.624;2024-01-30T13:43:43;11.2;;;6;;
49582;SDS011;36329;48.816;44.624;2024-01-30T13:46:45;9;;;5.5;;
49582;SDS011;36329;48.816;44.624;2024-01-30T13:49:47;12.1;;;6;;
49582;SDS011;36329;48.816;44.624;2024-01-30T13:52:49;10.9;;;6.1;;
49582;SDS011;36329;48.816;44.624;2024-01-30T13:55:52;9.3;;;5.7;;
49582;SDS011;36329;48.816;44.624;2024-01-30T13:58:54;10.5;;;5.8;;
49582;SDS011;36329;48.816;44.624;2024-01-30T14:01:56;12.3;;;6.8;;
49582;SDS011;36329;48.816;44.624;2024-01-30T14:04:59;11.7;;;6.3;;
49582;SDS011;36329;48.816;44.624;2024-01-30T14:08:02;12.4;;;6.4;;
49582;SDS011;36329;48.816;44.624;2024-01-30T14:11:04;13.5;;;6.8;;
49582;SDS011;36329;48.816;44.624;2024-01-30T14:14:06;11.8;;;6.6;;
49582;SDS011;36329;48.816;44.624;2024-01-30T14:17:08;12.2;;;6.4;;
49582;SDS011;36329;48.816;44.624;2024-01-30T14:20:11;10.8;;;6.2;;
49582;SDS011;36329;48.816;44.624;2024-01-30T14:23:13;12.3;;;6.2;;
49582;SDS011;36329;48.816;44.624;2024-01-30T14:26:16;11;;;6;;
49582;SDS011;36329;48.816;44.624;2024-01-30T14:29:18;10.8;;;5.8;;
49582;SDS011;36329;48.816;44.624;2024-01-30T14:32:20;11.3;;;5.8;;
49582;SDS011;36329;48.816;44.624;2024-01-30T14:35:22;11.2;;;6.1;;
49582;SDS011;36329;48.816;44.624;2024-01-30T14:38:24;9.8;;;6;;
49582;SDS011;36329;48.816;44.624;2024-01-30T14:41:26;11.4;;;5.8;;
49582;SDS011;36329;48.816;44.624;2024-01-30T14:44:30;10.6;;;5.8;;
49582;SDS011;36329;48.816;44.624;2024-01-30T14:47:32;10.8;;;5.9;;
49582;SDS011;36329;48.816;44.624;2024-01-30T14:50:35;10.1;;;5.9;;
49582;SDS011;36329;48.816;44.624;2024-01-30T14:53:37;10.1;;;6.2;;
49582;SDS011;36329;48.816;44.624;2024-01-30T14:56:39;10.8;;;5.9;;
49582;SDS011;36329;48.816;44.624;2024-01-30T14:59:42;10.3;;;5.9;;
49582;SDS011;36329;48.816;44.624;2024-01-30T15:02:46;9.3;;;5.7;;
49582;SDS011;36329;48.816;44.624;2024-01-30T15:05:48;11;;;6.2;;
49582;SDS011;36329;48.816;44.624;2024-01-30T15:08:51;10.1;;;5.7;;
49582;SDS011;36329;48.816;44.624;2024-01-30T15:11:54;10.2;;;5.9;;
49582;SDS011;36329;48.816;44.624;2024-01-30T15:14:57;9.5;;;5.7;;
49582;SDS011;36329;48.816;44.624;2024-01-30T15:17:59;9.5;;;5.6;;
49582;SDS011;36329;48.816;44.624;2024-01-30T15:21:01;10;;;5.7;;
49582;SDS011;36329;48.816;44.624;2024-01-30T15:24:04;11;;;6;;
49582;SDS011;36329;48.816;44.624;2024-01-30T15:27:06;11.7;;;6.1;;
49582;SDS011;36329;48.816;44.624;2024-01-30T15:30:10;10.8;;;6.6;;
49582;SDS011;36329;48.816;44.624;2024-01-30T15:33:13;11.7;;;6.2;;
49582;SDS011;36329;48.816;44.624;2024-01-30T15:36:16;11.1;;;6.7;;
49582;SDS011;36329;48.816;44.624;2024-01-30T15:39:18;11.6;;;6.6;;
49582;SDS011;36329;48.816;44.624;2024-01-30T15:42:20;14;;;7.1;;
49582;SDS011;36329;48.816;44.624;2024-01-30T15:45:23;12.3;;;6.4;;
49582;SDS011;36329;48.816;44.624;2024-01-30T15:48:25;11.5;;;6.2;;
49582;SDS011;36329;48.816;44.624;2024-01-30T15:51:28;12.6;;;7.1;;
49582;SDS011;36329;48.816;44.624;2024-01-30T15:54:30;11.6;;;6.6;;
49582;SDS011;36329;48.816;44.624;2024-01-30T15:57:32;12.1;;;6.5;;
49582;SDS011;36329;48.816;44.624;2024-01-30T16:00:35;12.6;;;7.1;;
49582;SDS011;36329;48.816;44.624;2024-01-30T16:03:37;11;;;6.6;;
49582;SDS011;36329;48.816;44.624;2024-01-30T16:06:39;12;;;6.6;;
49582;SDS011;36329;48.816;44.624;2024-01-30T16:09:44;11.5;;;6.8;;
49582;SDS011;36329;48.816;44.624;2024-01-30T16:12:47;11.3;;;6.4;;
49582;SDS011;36329;48.816;44.624;2024-01-30T16:15:49;10.4;;;6.4;;
49582;SDS011;36329;48.816;44.624;2024-01-30T16:18:52;12.3;;;6.8;;
49582;SDS011;36329;48.816;44.624;2024-01-30T16:21:55;11.5;;;6.5;;
49582;SDS011;36329;48.816;44.624;2024-01-30T16:24:59;10.8;;;6.3;;
49582;SDS011;36329;48.816;44.624;2024-01-30T16:28:02;10.2;;;6.1;;
49582;SDS011;36329;48.816;44.624;2024-01-30T16:31:04;12.9;;;7.2;;
49582;SDS011;36329;48.816;44.624;2024-01-30T16:34:11;12;;;6.7;;
49582;SDS011;36329;48.816;44.624;2024-01-30T16:37:17;12;;;6.9;;
49582;SDS011;36329;48.816;44.624;2024-01-30T16:40:21;13;;;6.9;;
49582;SDS011;36329;48.816;44.624;2024-01-30T16:43:23;12.4;;;7;;
49582;SDS011;36329;48.816;44.624;2024-01-30T16:46:34;11.9;;;6.2;;
49582;SDS011;36329;48.816;44.624;2024-01-30T16:49:38;11.3;;;6.6;;
49582;SDS011;36329;48.816;44.624;2024-01-30T16:52:42;13.2;;;6.4;;
49582;SDS011;36329;48.816;44.624;2024-01-30T16:55:45;13.5;;;7.2;;
49582;SDS011;36329;48.816;44.624;2024-01-30T16:58:51;13.9;;;7.3;;
49582;SDS011;36329;48.816;44.624;2024-01-30T17:01:53;11.5;;;6.4;;
49582;SDS011;36329;48.816;44.624;2024-01-30T17:04:56;12.5;;;6.8;;
49582;SDS011;36329;48.816;44.624;2024-01-30T17:07:58;12.1;;;6.7;;
49582;SDS011;36329;48.816;44.624;2024-01-30T17:11:03;12;;;6.5;;
49582;SDS011;36329;48.816;44.624;2024-01-30T17:14:09;14;;;6.9;;
49582;SDS011;36329;48.816;44.624;2024-01-30T17:17:18;12.4;;;7.5;;
49582;SDS011;36329;48.816;44.624;2024-01-30T17:20:23;10.8;;;6.6;;
49582;SDS011;36329;48.816;44.624;2024-01-30T17:23:25;13.1;;;7.2;;
49582;SDS011;36329;48.816;44.624;2024-01-30T17:26:34;13.3;;;6.9;;
49582;SDS011;36329;48.816;44.624;2024-01-30T17:29:44;11.1;;;6.4;;
49582;SDS011;36329;48.816;44.624;2024-01-30T17:32:52;14.2;;;7.4;;
49582;SDS011;36329;48.816;44.624;2024-01-30T17:35:59;11.6;;;6.9;;
49582;SDS011;36329;48.816;44.624;2024-01-30T17:39:02;12.2;;;6.8;;
49582;SDS011;36329;48.816;44.624;2024-01-30T17:42:07;12.2;;;6.7;;
49582;SDS011;36329;48.816;44.624;2024-01-30T17:45:15;12.8;;;6.8;;
49582;SDS011;36329;48.816;44.624;2024-01-30T17:48:22;12.9;;;7;;
49582;SDS011;36329;48.816;44.624;2024-01-30T17:51:30;13;;;7.2;;
49582;SDS011;36329;48.816;44.624;2024-01-30T17:54:37;11.9;;;6.8;;
49582;SDS011;36329;48.816;44.624;2024-01-30T17:57:45;12.9;;;7.4;;
49582;SDS011;36329;48.816;44.624;2024-01-30T18:00:51;13.5;;;7.4;;
49582;SDS011;36329;48.816;44.624;2024-01-30T18:03:56;11.4;;;6.7;;
49582;SDS011;36329;48.816;44.624;2024-01-30T18:07:01;13.1;;;7.3;;
49582;SDS011;36329;48.816;44.624;2024-01-30T18:10:07;13.7;;;7.2;;
49582;SDS011;36329;48.816;44.624;2024-01-30T18:13:10;12.9;;;7;;
49582;SDS011;36329;48.816;44.624;2024-01-30T18:16:12;14.1;;;6.7;;
49582;SDS011;36329;48.816;44.624;2024-01-30T18:19:14;13.3;;;7.4;;
49582;SDS011;36329;48.816;44.624;2024-01-30T18:22:17;15;;;7.7;;
49582;SDS011;36329;48.816;44.624;2024-01-30T18:25:19;12.7;;;7;;
49582;SDS011;36329;48.816;44.624;2024-01-30T18:28:22;13.4;;;7.3;;
49582;SDS011;36329;48.816;44.624;2024-01-30T18:31:24;15.7;;;8.2;;
49582;SDS011;36329;48.816;44.624;2024-01-30T18:34:27;14.4;;;8.2;;
49582;SDS011;36329;48.816;44.624;2024-01-30T18:37:29;15.1;;;8;;